Time;durP1;ratioP1;P1;durP2;ratioP2;P2;SDS_P1;SDS_P2;PMS_P1;PMS_P2;Temp;Humidity;BMP_temperature;BMP_pressure;BME280_temperature;BME280_humidity;BME280_pressure;Samples;Min_cycle;Max_cycle;Signal;HPM_P1;HPM_P2
2019/10/05 00:00:32;;;;;;;2.1;1.1;;;;;;;;;;;;;
2019/10/05 00:02:53;;;;;;;3.4;1.2;;;;;;;;;;;;;
2019/10/05 00:05:20;;;;;;;2.9;1;;;;;;;;;;;;;
2019/10/05 00:07:47;;;;;;;2.9;1.1;;;;;;;;;;;;;
2019/10/05 00:10:11;;;;;;;2.5;1;;;;;;;;;;;;;
2019/10/05 00:12:40;;;;;;;4.3;1;;;;;;;;;;;;;
2019/10/05 00:15:00;;;;;;;2.7;0.9;;;;;;;;;;;;;
2019/10/05 00:17:34;;;;;;;2.1;0.9;;;;;;;;;;;;;
2019/10/05 00:20:07;;;;;;;3.8;1.1;;;;;;;;;;;;;
2019/10/05 00:22:21;;;;;;;1.8;1;;;;;;;;;;;;;
2019/10/05 00:24:44;;;;;;;3.1;1;;;;;;;;;;;;;
2019/10/05 00:27:09;;;;;;;5.1;1;;;;;;;;;;;;;
2019/10/05 00:29:37;;;;;;;2.8;0.9;;;;;;;;;;;;;
2019/10/05 00:32:00;;;;;;;4.2;1.1;;;;;;;;;;;;;
2019/10/05 00:34:24;;;;;;;2.6;1.1;;;;;;;;;;;;;
2019/10/05 00:36:50;;;;;;;2.4;1.1;;;;;;;;;;;;;
2019/10/05 00:39:15;;;;;;;4.1;1;;;;;;;;;;;;;
2019/10/05 00:41:42;;;;;;;3.4;1.1;;;;;;;;;;;;;
2019/10/05 00:46:31;;;;;;;3.3;1.2;;;;;;;;;;;;;
2019/10/05 00:48:56;;;;;;;2.5;0.9;;;;;;;;;;;;;
2019/10/05 00:51:21;;;;;;;2.9;1;;;;;;;;;;;;;
2019/10/05 00:53:46;;;;;;;2.1;1;;;;;;;;;;;;;
2019/10/05 00:56:11;;;;;;;2.8;1.1;;;;;;;;;;;;;
2019/10/05 00:58:41;;;;;;;3.7;0.9;;;;;;;;;;;;;
2019/10/05 01:01:06;;;;;;;3.7;1.2;;;;;;;;;;;;;
2019/10/05 01:03:35;;;;;;;3.5;1.1;;;;;;;;;;;;;
2019/10/05 01:06:01;;;;;;;2.9;1.1;;;;;;;;;;;;;
2019/10/05 01:08:28;;;;;;;3.3;1.2;;;;;;;;;;;;;
2019/10/05 01:10:53;;;;;;;3.9;1.2;;;;;;;;;;;;;
2019/10/05 01:13:18;;;;;;;4.3;1.3;;;;;;;;;;;;;
2019/10/05 01:15:48;;;;;;;4.7;1.1;;;;;;;;;;;;;
2019/10/05 01:18:14;;;;;;;2.9;1.1;;;;;;;;;;;;;
2019/10/05 01:20:38;;;;;;;4.3;1.2;;;;;;;;;;;;;
2019/10/05 01:23:05;;;;;;;2.6;1;;;;;;;;;;;;;
2019/10/05 01:25:28;;;;;;;2.8;1;;;;;;;;;;;;;
2019/10/05 01:27:54;;;;;;;3.5;1.1;;;;;;;;;;;;;
2019/10/05 01:30:19;;;;;;;4.6;0.9;;;;;;;;;;;;;
2019/10/05 01:32:43;;;;;;;2.4;1;;;;;;;;;;;;;
2019/10/05 01:35:09;;;;;;;3.4;1.2;;;;;;;;;;;;;
2019/10/05 01:37:36;;;;;;;2.9;1.1;;;;;;;;;;;;;
2019/10/05 01:40:03;;;;;;;3.3;1;;;;;;;;;;;;;
2019/10/05 01:42:28;;;;;;;4.4;1;;;;;;;;;;;;;
2019/10/05 01:44:53;;;;;;;2;0.8;;;;;;;;;;;;;
2019/10/05 01:47:20;;;;;;;4.1;1;;;;;;;;;;;;;
2019/10/05 01:49:46;;;;;;;3.3;1.3;;;;;;;;;;;;;
2019/10/05 01:52:10;;;;;;;2.6;1.1;;;;;;;;;;;;;
2019/10/05 01:54:36;;;;;;;2.3;1.1;;;;;;;;;;;;;
2019/10/05 01:57:06;;;;;;;3.1;1.1;;;;;;;;;;;;;
2019/10/05 01:59:28;;;;;;;2.5;1;;;;;;;;;;;;;
2019/10/05 02:01:52;;;;;;;4.2;0.9;;;;;;;;;;;;;
2019/10/05 02:04:16;;;;;;;2.9;0.9;;;;;;;;;;;;;
2019/10/05 02:06:47;;;;;;;2.6;0.9;;;;;;;;;;;;;
2019/10/05 02:09:11;;;;;;;2.4;0.9;;;;;;;;;;;;;
2019/10/05 02:11:32;;;;;;;4.2;1;;;;;;;;;;;;;
2019/10/05 02:13:57;;;;;;;2.8;0.9;;;;;;;;;;;;;
2019/10/05 02:16:22;;;;;;;3.5;1.2;;;;;;;;;;;;;
2019/10/05 02:18:50;;;;;;;3;1;;;;;;;;;;;;;
2019/10/05 02:21:12;;;;;;;4;1.2;;;;;;;;;;;;;
2019/10/05 02:23:37;;;;;;;3.3;1.3;;;;;;;;;;;;;
2019/10/05 02:26:08;;;;;;;3;1.3;;;;;;;;;;;;;
2019/10/05 02:28:34;;;;;;;3.3;1.5;;;;;;;;;;;;;
2019/10/05 02:30:56;;;;;;;4.8;1.3;;;;;;;;;;;;;
2019/10/05 02:33:27;;;;;;;3.6;1.4;;;;;;;;;;;;;
2019/10/05 02:35:52;;;;;;;2.7;1.2;;;;;;;;;;;;;
2019/10/05 02:38:20;;;;;;;3;1.2;;;;;;;;;;;;;
2019/10/05 02:40:46;;;;;;;3.4;1.3;;;;;;;;;;;;;
2019/10/05 02:43:10;;;;;;;4.6;1.4;;;;;;;;;;;;;
2019/10/05 02:45:35;;;;;;;5;1.1;;;;;;;;;;;;;
2019/10/05 02:48:25;;;;;;;4.3;1.1;;;;;;;;;;;;;
2019/10/05 02:50:26;;;;;;;2.8;1.3;;;;;;;;;;;;;
2019/10/05 02:52:53;;;;;;;3.1;1.2;;;;;;;;;;;;;
2019/10/05 02:55:21;;;;;;;4.6;1.2;;;;;;;;;;;;;
2019/10/05 02:57:45;;;;;;;4.7;1.2;;;;;;;;;;;;;
2019/10/05 03:00:08;;;;;;;3.9;1.1;;;;;;;;;;;;;
2019/10/05 03:02:39;;;;;;;3.1;1;;;;;;;;;;;;;
2019/10/05 03:05:03;;;;;;;4;1;;;;;;;;;;;;;
2019/10/05 03:07:26;;;;;;;2.5;1;;;;;;;;;;;;;
2019/10/05 03:09:53;;;;;;;4;1;;;;;;;;;;;;;
2019/10/05 03:12:16;;;;;;;3.3;1.2;;;;;;;;;;;;;
2019/10/05 03:14:44;;;;;;;4.1;1;;;;;;;;;;;;;
2019/10/05 03:17:09;;;;;;;2.8;1.1;;;;;;;;;;;;;
2019/10/05 03:19:34;;;;;;;2.8;1.1;;;;;;;;;;;;;
2019/10/05 03:21:58;;;;;;;6.9;1.2;;;;;;;;;;;;;
2019/10/05 03:24:26;;;;;;;4;1.3;;;;;;;;;;;;;
2019/10/05 03:26:50;;;;;;;5.4;1.2;;;;;;;;;;;;;
2019/10/05 03:29:14;;;;;;;2.9;1;;;;;;;;;;;;;
2019/10/05 03:31:42;;;;;;;3.8;1.2;;;;;;;;;;;;;
2019/10/05 03:34:04;;;;;;;5;1.1;;;;;;;;;;;;;
2019/10/05 03:36:29;;;;;;;5;1.2;;;;;;;;;;;;;
2019/10/05 03:38:55;;;;;;;2.8;1.1;;;;;;;;;;;;;
2019/10/05 03:41:25;;;;;;;4.5;1.3;;;;;;;;;;;;;
2019/10/05 03:43:49;;;;;;;4.1;1.2;;;;;;;;;;;;;
2019/10/05 03:46:14;;;;;;;3.2;1.2;;;;;;;;;;;;;
2019/10/05 03:48:42;;;;;;;2.8;1.2;;;;;;;;;;;;;
2019/10/05 03:51:18;;;;;;;3.9;1.1;;;;;;;;;;;;;
2019/10/05 03:53:32;;;;;;;5.1;1.2;;;;;;;;;;;;;
2019/10/05 03:55:56;;;;;;;4.6;1.1;;;;;;;;;;;;;
2019/10/05 03:58:22;;;;;;;4.2;1.1;;;;;;;;;;;;;
2019/10/05 04:02:30;;;;;;;3.4;1;;;;;;;10.83;86.37598;931.949;;;;
2019/10/05 04:05:01;;;;;;;2.9;1.2;;;;;;;10.87;86.18945;932.1289;;;;
2019/10/05 04:07:32;;;;;;;3.6;1.2;;;;;;;10.89;86.43262;932.1353;;;;
2019/10/05 04:09:56;;;;;;;5.3;1.2;;;;;;;10.98;86.0293;932.0745;;;;
2019/10/05 04:17:37;;;;;;;4;1.2;;;;;;;10.7;86.16602;931.976;;;;
2019/10/05 04:19:45;;;;;;;3.7;1.2;;;;;;;10.71;86.50098;932.0731;;;;
2019/10/05 04:22:17;;;;;;;2.6;1.2;;;;;;;10.77;86.06836;932.1065;;;;
2019/10/05 04:25:10;;;;;;;3;1.3;;;;;;;10.65;86.61426;932.0955;;;;
2019/10/05 04:27:17;;;;;;;2.9;1.3;;;;;;;10.62;86.69824;931.902;;;;
2019/10/05 04:29:46;;;;;;;4.3;2;;;;;;;10.55;87.0625;931.9186;;;;
2019/10/05 04:32:17;;;;;;;3.1;1.6;;;;;;;10.43;87.08496;931.8638;;;;
2019/10/05 04:34:46;;;;;;;5.9;3.1;;;;;;;10.6;87.68848;931.9369;;;;
2019/10/05 04:37:24;;;;;;;4.4;2.7;;;;;;;10.7;87.4248;931.8128;;;;
2019/10/05 04:39:45;;;;;;;3.8;1.5;;;;;;;10.72;86.82129;931.8342;;;;
2019/10/05 04:42:15;;;;;;;4.2;1.6;;;;;;;10.81;86.30371;931.8893;;;;
2019/10/05 04:44:47;;;;;;;3.3;1.6;;;;;;;10.87;86.22363;931.9481;;;;
2019/10/05 04:47:12;;;;;;;4.9;1.8;;;;;;;10.93;86.37109;931.9695;;;;
2019/10/05 04:50:14;;;;;;;5.2;1.8;;;;;;;10.97;85.87793;931.975;;;;
2019/10/05 04:52:41;;;;;;;3.9;1.8;;;;;;;11.03;85.67285;931.9002;;;;
2019/10/05 04:55:14;;;;;;;4.7;1.4;;;;;;;10.98;86.14355;931.9192;;;;
2019/10/05 04:57:45;;;;;;;6.4;2.4;;;;;;;11;85.54004;931.8753;;;;
2019/10/05 05:00:16;;;;;;;4.6;1.7;;;;;;;10.99;85.42578;932.0331;;;;
2019/10/05 05:03:09;;;;;;;3.7;1.3;;;;;;;10.97;85.69434;931.9966;;;;
2019/10/05 05:05:32;;;;;;;5.4;1.5;;;;;;;11.02;85.55664;931.8723;;;;
2019/10/05 05:08:11;;;;;;;2.5;1.5;;;;;;;11;85.3916;931.9334;;;;
2019/10/05 05:10:45;;;;;;;4;1.5;;;;;;;11.03;85.5;932.0213;;;;
2019/10/05 05:13:29;;;;;;;4.5;2.3;;;;;;;10.86;85.51465;932.0278;;;;
2019/10/05 05:15:54;;;;;;;6.1;3.9;;;;;;;10.88;85.25586;932.0015;;;;
2019/10/05 05:19:19;;;;;;;4.6;2;;;;;;;10.93;85.40332;932.1089;;;;
2019/10/05 05:22:09;;;;;;;4.9;1.4;;;;;;;10.91;85.59082;932.1305;;;;
2019/10/05 05:24:55;;;;;;;3.3;1.3;;;;;;;10.86;86.16504;932.2166;;;;
2019/10/05 05:31:04;;;;;;;3.2;1.1;;;;;;;10.81;85.91602;932.2498;;;;
2019/10/05 05:33:54;;;;;;;2;1;;;;;;;10.77;85.87207;932.1726;;;;
2019/10/05 05:36:12;;;;;;;2.8;1.2;;;;;;;10.87;85.48047;932.1752;;;;
2019/10/05 05:38:43;;;;;;;3;1.4;;;;;;;10.92;85.90137;932.1351;;;;
2019/10/05 05:41:24;;;;;;;3.6;1.2;;;;;;;11;85.63184;932.1406;;;;
2019/10/05 05:43:49;;;;;;;4.8;2.9;;;;;;;10.93;85.79004;932.1886;;;;
2019/10/05 05:46:17;;;;;;;5.2;2.5;;;;;;;10.98;85.0127;932.2561;;;;
2019/10/05 05:48:56;;;;;;;8.8;5.5;;;;;;;10.98;85.10352;932.1972;;;;
2019/10/05 05:51:18;;;;;;;6.5;4.2;;;;;;;10.82;86.79492;932.2636;;;;
2019/10/05 05:53:58;;;;;;;6.2;1.3;;;;;;;10.8;85.82227;932.1989;;;;
2019/10/05 05:56:33;;;;;;;2.5;1.4;;;;;;;10.81;86.63574;932.1813;;;;
2019/10/05 05:58:56;;;;;;;3.7;1.5;;;;;;;10.88;83.93066;932.1496;;;;
2019/10/05 06:01:23;;;;;;;2.6;1;;;;;;;10.81;85.92676;932.1781;;;;
2019/10/05 06:03:55;;;;;;;3.3;1.3;;;;;;;10.71;84.74219;932.2228;;;;
2019/10/05 06:06:26;;;;;;;2.5;1.2;;;;;;;10.71;86.04395;932.1863;;;;
2019/10/05 06:09:00;;;;;;;4.6;1.6;;;;;;;10.73;86.60547;932.3367;;;;
2019/10/05 06:11:25;;;;;;;1.9;1.1;;;;;;;10.86;86.84082;932.2308;;;;
2019/10/05 06:16:29;;;;;;;2.8;1.4;;;;;;;11.04;85.06934;932.3272;;;;
2019/10/05 06:19:01;;;;;;;3.2;1.3;;;;;;;11.13;85.7168;932.3198;;;;
2019/10/05 06:21:25;;;;;;;4;1.4;;;;;;;11.18;85.36035;932.2256;;;;
2019/10/05 06:24:00;;;;;;;4.1;1.4;;;;;;;11.15;85.60449;932.2608;;;;
2019/10/05 06:26:36;;;;;;;4.9;1.5;;;;;;;11.28;85.54004;932.1819;;;;
2019/10/05 06:28:59;;;;;;;3.4;1.4;;;;;;;11.32;85.03223;932.2048;;;;
2019/10/05 06:31:30;;;;;;;4.5;1.4;;;;;;;11.36;85.17871;932.1545;;;;
2019/10/05 06:34:00;;;;;;;3.1;1.5;;;;;;;11.42;84.48145;932.2391;;;;
2019/10/05 06:36:27;;;;;;;3.2;1.7;;;;;;;;;;;;;
2019/10/05 06:38:54;;;;;;;4.6;1.8;;;;;;;;;;;;;
2019/10/05 06:41:15;;;;;;;2.9;1.3;;;;;;;;;;;;;
2019/10/05 06:43:43;;;;;;;3.3;1.8;;;;;;;;;;;;;
2019/10/05 06:46:19;;;;;;;3.1;1.9;;;;;;;;;;;;;
2019/10/05 06:48:53;;;;;;;2.6;1.4;;;;;;;;;;;;;
2019/10/05 06:52:10;;;;;;;3.7;2.1;;;;;;;;;;;;;
2019/10/05 06:53:40;;;;;;;4.4;2.7;;;;;;;;;;;;;
2019/10/05 06:56:05;;;;;;;3;2.2;;;;;;;;;;;;;
2019/10/05 06:58:33;;;;;;;3.6;3;;;;;;;;;;;;;
2019/10/05 07:00:55;;;;;;;4.7;1.7;;;;;;;;;;;;;
2019/10/05 07:03:27;;;;;;;3.7;1.3;;;;;;;;;;;;;
2019/10/05 07:05:46;;;;;;;2.8;1.4;;;;;;;;;;;;;
2019/10/05 07:08:14;;;;;;;4.1;1.6;;;;;;;;;;;;;
2019/10/05 07:10:37;;;;;;;4.1;2;;;;;;;;;;;;;
2019/10/05 07:13:02;;;;;;;6.8;2.1;;;;;;;;;;;;;
2019/10/05 07:15:26;;;;;;;4.4;1.7;;;;;;;;;;;;;
2019/10/05 07:17:50;;;;;;;3.9;2;;;;;;;;;;;;;
2019/10/05 07:20:23;;;;;;;3;1.9;;;;;;;;;;;;;
2019/10/05 07:22:46;;;;;;;2.4;1.5;;;;;;;;;;;;;
2019/10/05 07:25:12;;;;;;;2.3;1.4;;;;;;;;;;;;;
2019/10/05 07:27:36;;;;;;;2.8;1.5;;;;;;;;;;;;;
2019/10/05 07:30:04;;;;;;;4.8;2.5;;;;;;;;;;;;;
2019/10/05 07:32:31;;;;;;;3.1;1.4;;;;;;;;;;;;;
2019/10/05 07:34:52;;;;;;;2.3;1.5;;;;;;;;;;;;;
2019/10/05 07:37:18;;;;;;;5.7;2.1;;;;;;;;;;;;;
2019/10/05 07:39:44;;;;;;;3.6;1.7;;;;;;;;;;;;;
2019/10/05 07:42:14;;;;;;;2.2;1.3;;;;;;;;;;;;;
2019/10/05 07:44:49;;;;;;;2.9;1.2;;;;;;;;;;;;;
2019/10/05 07:47:15;;;;;;;2.5;1.3;;;;;;;;;;;;;
2019/10/05 07:49:53;;;;;;;3.1;1.7;;;;;;;;;;;;;
2019/10/05 07:52:18;;;;;;;9.1;5.8;;;;;;;;;;;;;
2019/10/05 07:54:48;;;;;;;3.8;2.4;;;;;;;;;;;;;
2019/10/05 07:57:22;;;;;;;3.5;1.8;;;;;;;;;;;;;
2019/10/05 07:59:48;;;;;;;4.5;3.4;;;;;;;;;;;;;
2019/10/05 08:02:25;;;;;;;4.7;3;;;;;;;;;;;;;
2019/10/05 08:04:43;;;;;;;6;2.6;;;;;;;;;;;;;
2019/10/05 08:07:08;;;;;;;4.1;2.7;;;;;;;;;;;;;
2019/10/05 08:09:31;;;;;;;4.1;2.5;;;;;;;;;;;;;
2019/10/05 08:12:10;;;;;;;3.9;2.4;;;;;;;;;;;;;
2019/10/05 08:14:31;;;;;;;10.2;5.9;;;;;;;;;;;;;
2019/10/05 08:17:11;;;;;;;4.5;1.5;;;;;;;;;;;;;
2019/10/05 08:19:36;;;;;;;3.4;2;;;;;;;;;;;;;
2019/10/05 08:22:05;;;;;;;2.6;1.7;;;;;;;;;;;;;
2019/10/05 08:25:11;;;;;;;2.6;1.7;;;;;;;;;;;;;
2019/10/05 08:27:25;;;;;;;5.3;1.8;;;;;;;;;;;;;
2019/10/05 08:30:17;;;;;;;2.3;1.7;;;;;;;;;;;;;
2019/10/05 08:32:23;;;;;;;2.8;1.6;;;;;;;;;;;;;
2019/10/05 08:34:51;;;;;;;3.2;1.6;;;;;;;;;;;;;
2019/10/05 08:37:17;;;;;;;2.9;1.4;;;;;;;;;;;;;
2019/10/05 08:40:12;;;;;;;2.2;1.2;;;;;;;;;;;;;
2019/10/05 08:42:52;;;;;;;2.3;1.4;;;;;;;;;;;;;
2019/10/05 08:45:16;;;;;;;3;1.3;;;;;;;;;;;;;
2019/10/05 08:47:47;;;;;;;2.7;1.7;;;;;;;;;;;;;
2019/10/05 08:50:11;;;;;;;2.5;1.3;;;;;;;;;;;;;
2019/10/05 08:52:35;;;;;;;2.8;1.3;;;;;;;;;;;;;
2019/10/05 08:55:00;;;;;;;3.6;1.3;;;;;;;;;;;;;
2019/10/05 08:57:27;;;;;;;2.4;1.4;;;;;;;;;;;;;
2019/10/05 09:00:01;;;;;;;3.8;1.5;;;;;;;;;;;;;
2019/10/05 09:02:17;;;;;;;2.9;1.4;;;;;;;;;;;;;
2019/10/05 09:04:41;;;;;;;2.6;1.4;;;;;;;;;;;;;
2019/10/05 09:07:13;;;;;;;3.9;1.2;;;;;;;;;;;;;
2019/10/05 09:09:39;;;;;;;2.1;1.1;;;;;;;;;;;;;
2019/10/05 09:12:09;;;;;;;4.3;1.2;;;;;;;;;;;;;
2019/10/05 09:14:32;;;;;;;2.8;1.7;;;;;;;;;;;;;
2019/10/05 09:16:56;;;;;;;3.5;1.5;;;;;;;;;;;;;
2019/10/05 09:21:50;;;;;;;2.2;1.3;;;;;;;;;;;;;
2019/10/05 09:24:12;;;;;;;3;1.2;;;;;;;;;;;;;
2019/10/05 09:26:36;;;;;;;3.1;1;;;;;;;;;;;;;
2019/10/05 09:29:03;;;;;;;1.6;0.9;;;;;;;;;;;;;
2019/10/05 09:31:32;;;;;;;1.8;0.9;;;;;;;;;;;;;
2019/10/05 09:33:56;;;;;;;1.6;1;;;;;;;;;;;;;
2019/10/05 09:36:29;;;;;;;2.6;1.3;;;;;;;;;;;;;
2019/10/05 09:39:00;;;;;;;4;1.4;;;;;;;;;;;;;
2019/10/05 09:41:28;;;;;;;3.7;1.2;;;;;;;;;;;;;
2019/10/05 09:43:58;;;;;;;3.4;1.4;;;;;;;;;;;;;
2019/10/05 09:47:12;;;;;;;1.9;1.2;;;;;;;;;;;;;
2019/10/05 09:49:30;;;;;;;1.5;1;;;;;;;;;;;;;
2019/10/05 09:51:53;;;;;;;16.3;6.7;;;;;;;;;;;;;
2019/10/05 09:56:47;;;;;;;3.6;1.6;;;;;;;;;;;;;
2019/10/05 09:59:09;;;;;;;3.4;1.6;;;;;;;;;;;;;
2019/10/05 10:01:35;;;;;;;3.9;1.6;;;;;;;;;;;;;
2019/10/05 10:04:04;;;;;;;14.6;5.3;;;;;;;;;;;;;
2019/10/05 10:06:34;;;;;;;3.3;1.7;;;;;;;;;;;;;
2019/10/05 10:08:59;;;;;;;11.2;4.8;;;;;;;;;;;;;
2019/10/05 10:11:25;;;;;;;2.5;1.2;;;;;;;;;;;;;
2019/10/05 10:13:49;;;;;;;3.7;0.9;;;;;;;;;;;;;
2019/10/05 10:16:18;;;;;;;2.1;1.1;;;;;;;;;;;;;
2019/10/05 10:18:43;;;;;;;1.8;1.1;;;;;;;;;;;;;
2019/10/05 10:21:16;;;;;;;4.2;2.4;;;;;;;;;;;;;
2019/10/05 10:23:47;;;;;;;2.2;1.4;;;;;;;;;;;;;
2019/10/05 10:26:12;;;;;;;6.7;3.2;;;;;;;;;;;;;
2019/10/05 10:28:40;;;;;;;4;2.8;;;;;;;;;;;;;
2019/10/05 10:31:08;;;;;;;3.3;2.2;;;;;;;;;;;;;
2019/10/05 10:33:42;;;;;;;4.5;2.2;;;;;;;;;;;;;
2019/10/05 10:36:20;;;;;;;3.3;1.9;;;;;;;;;;;;;
2019/10/05 10:38:47;;;;;;;3.1;1.8;;;;;;;;;;;;;
2019/10/05 10:41:12;;;;;;;2;1.1;;;;;;;;;;;;;
2019/10/05 10:43:38;;;;;;;2.6;0.8;;;;;;;;;;;;;
2019/10/05 10:46:02;;;;;;;1.2;0.8;;;;;;;;;;;;;
2019/10/05 10:48:37;;;;;;;2.3;1;;;;;;;;;;;;;
2019/10/05 10:51:12;;;;;;;1.6;0.8;;;;;;;;;;;;;
2019/10/05 10:53:38;;;;;;;3.6;0.8;;;;;;;;;;;;;
2019/10/05 10:56:12;;;;;;;1.9;0.9;;;;;;;;;;;;;
2019/10/05 10:58:39;;;;;;;1.5;0.7;;;;;;;;;;;;;
2019/10/05 11:01:03;;;;;;;1.8;1.3;;;;;;;;;;;;;
2019/10/05 11:03:29;;;;;;;1.9;1;;;;;;;;;;;;;
2019/10/05 11:05:55;;;;;;;1.2;0.7;;;;;;;;;;;;;
2019/10/05 11:08:22;;;;;;;1.1;0.7;;;;;;;;;;;;;
2019/10/05 11:10:48;;;;;;;1.1;0.8;;;;;;;;;;;;;
2019/10/05 11:13:12;;;;;;;1.1;0.7;;;;;;;;;;;;;
2019/10/05 11:15:37;;;;;;;4.2;2.4;;;;;;;;;;;;;
2019/10/05 11:18:12;;;;;;;1.5;0.8;;;;;;;;;;;;;
2019/10/05 11:20:29;;;;;;;4.6;0.9;;;;;;;;;;;;;
2019/10/05 11:22:55;;;;;;;2.4;0.9;;;;;;;;;;;;;
2019/10/05 11:25:25;;;;;;;3.5;1.3;;;;;;;;;;;;;
2019/10/05 11:27:50;;;;;;;3.7;1.9;;;;;;;;;;;;;
2019/10/05 11:30:25;;;;;;;1.5;0.7;;;;;;;;;;;;;
2019/10/05 11:32:48;;;;;;;1.5;0.8;;;;;;;;;;;;;
2019/10/05 11:35:17;;;;;;;1.6;0.8;;;;;;;;;;;;;
2019/10/05 11:37:42;;;;;;;2.6;1;;;;;;;;;;;;;
2019/10/05 11:40:17;;;;;;;3.6;1.4;;;;;;;;;;;;;
2019/10/05 11:42:38;;;;;;;1.3;0.6;;;;;;;;;;;;;
2019/10/05 11:45:04;;;;;;;2.2;0.8;;;;;;;;;;;;;
2019/10/05 11:47:37;;;;;;;2.2;0.5;;;;;;;;;;;;;
2019/10/05 11:50:00;;;;;;;1.3;0.5;;;;;;;;;;;;;
2019/10/05 11:52:22;;;;;;;1.2;0.6;;;;;;;;;;;;;
2019/10/05 11:54:52;;;;;;;2.9;0.7;;;;;;;;;;;;;
2019/10/05 11:57:18;;;;;;;2.5;0.5;;;;;;;;;;;;;
2019/10/05 11:59:42;;;;;;;1.2;0.6;;;;;;;;;;;;;
2019/10/05 12:02:08;;;;;;;1.9;0.7;;;;;;;;;;;;;
2019/10/05 12:04:37;;;;;;;3.3;1.8;;;;;;;;;;;;;
2019/10/05 12:07:19;;;;;;;2.7;1;;;;;;;;;;;;;
2019/10/05 12:09:51;;;;;;;1.8;0.7;;;;;;;;;;;;;
2019/10/05 12:12:26;;;;;;;1;0.7;;;;;;;;;;;;;
2019/10/05 12:14:47;;;;;;;3.5;2.2;;;;;;;;;;;;;
2019/10/05 12:17:21;;;;;;;0.9;0.6;;;;;;;;;;;;;
2019/10/05 12:19:38;;;;;;;6.6;4.3;;;;;;;;;;;;;
2019/10/05 12:22:04;;;;;;;1.6;0.5;;;;;;;;;;;;;
2019/10/05 12:24:26;;;;;;;2.6;0.6;;;;;;;;;;;;;
2019/10/05 12:26:51;;;;;;;1.5;1;;;;;;;;;;;;;
2019/10/05 12:29:24;;;;;;;1.2;0.8;;;;;;;;;;;;;
2019/10/05 12:31:53;;;;;;;1.3;0.5;;;;;;;;;;;;;
2019/10/05 12:34:23;;;;;;;2;0.6;;;;;;;;;;;;;
2019/10/05 12:36:48;;;;;;;1.4;0.8;;;;;;;;;;;;;
2019/10/05 12:41:49;;;;;;;1.8;0.8;;;;;;;;;;;;;
2019/10/05 12:44:13;;;;;;;2.5;0.8;;;;;;;;;;;;;
2019/10/05 12:46:41;;;;;;;1.1;0.7;;;;;;;;;;;;;
2019/10/05 12:49:08;;;;;;;1.7;0.8;;;;;;;;;;;;;
2019/10/05 12:51:34;;;;;;;2.6;1.2;;;;;;;;;;;;;
2019/10/05 12:54:12;;;;;;;0.9;0.7;;;;;;;;;;;;;
2019/10/05 12:56:33;;;;;;;2.5;1.4;;;;;;;;;;;;;
2019/10/05 12:59:57;;;;;;;2;0.8;;;;;;;12.83;82.28711;934.5559;;;;
2019/10/05 13:02:16;;;;;;;1.9;0.8;;;;;;;12.9;82.17383;934.5867;;;;
2019/10/05 13:04:48;;;;;;;3;0.8;;;;;;;13.01;81.32227;934.574;;;;
2019/10/05 13:07:15;;;;;;;1.4;0.8;;;;;;;12.94;81.22949;934.628;;;;
2019/10/05 13:10:34;;;;;;;2.1;0.6;;;;;;;13.01;81.0918;934.6077;;;;
2019/10/05 13:12:57;;;;;;;2.8;0.7;;;;;;;13.05;80.07813;934.7084;;;;
2019/10/05 13:15:26;;;;;;;2.9;1.4;;;;;;;13.09;80.625;934.7202;;;;
2019/10/05 13:17:54;;;;;;;1.3;0.9;;;;;;;13.04;81.78613;934.7996;;;;
2019/10/05 13:20:22;;;;;;;2.3;0.7;;;;;;;13.13;80.06836;934.8342;;;;
2019/10/05 13:22:48;;;;;;;1.5;0.8;;;;;;;13.12;81.2959;934.8998;;;;
2019/10/05 13:25:19;;;;;;;1.3;0.8;;;;;;;12.98;80.50195;934.9963;;;;
2019/10/05 13:27:45;;;;;;;2;0.6;;;;;;;12.99;80.20508;935.0185;;;;
2019/10/05 13:30:13;;;;;;;1.3;0.6;;;;;;;12.95;81.4834;935.0595;;;;
2019/10/05 13:32:39;;;;;;;0.9;0.6;;;;;;;12.94;79.72559;935.0403;;;;
2019/10/05 13:35:11;;;;;;;3.8;1.4;;;;;;;13.01;82.27637;935.1306;;;;
2019/10/05 13:37:36;;;;;;;2.2;1.3;;;;;;;12.8;82.88965;935.2197;;;;
2019/10/05 13:40:07;;;;;;;2.6;1.6;;;;;;;12.74;83.15527;935.1528;;;;
2019/10/05 13:42:33;;;;;;;3.3;1.9;;;;;;;12.95;83.04492;935.1809;;;;
2019/10/05 13:45:03;;;;;;;1.8;1.2;;;;;;;12.87;82.27051;935.1758;;;;
2019/10/05 13:47:37;;;;;;;4.3;1.6;;;;;;;12.88;83.99414;935.2061;;;;
2019/10/05 13:49:56;;;;;;;2.4;1;;;;;;;12.94;81.58594;935.2378;;;;
2019/10/05 13:52:30;;;;;;;3.8;2.6;;;;;;;12.89;82.25391;935.381;;;;
2019/10/05 13:55:05;;;;;;;3.3;1;;;;;;;12.81;82.30664;935.4681;;;;
2019/10/05 13:57:28;;;;;;;1.2;0.9;;;;;;;12.73;81.87891;935.4892;;;;
2019/10/05 14:00:01;;;;;;;1.3;0.8;;;;;;;12.61;82.30273;935.4604;;;;
2019/10/05 14:02:35;;;;;;;1.7;0.8;;;;;;;12.41;82.88672;935.5281;;;;
2019/10/05 14:05:18;;;;;;;1;0.8;;;;;;;12.31;83.46191;935.6015;;;;
2019/10/05 14:07:31;;;;;;;2.2;1;;;;;;;12.28;83.66309;935.6295;;;;
2019/10/05 14:10:01;;;;;;;2.4;0.7;;;;;;;11.8;84.92188;935.6122;;;;
2019/10/05 14:12:25;;;;;;;1.9;1;;;;;;;11.82;85.42969;935.63;;;;
2019/10/05 14:14:51;;;;;;;1.3;1;;;;;;;11.95;84.87207;935.7408;;;;
2019/10/05 14:17:23;;;;;;;1.3;1.1;;;;;;;11.77;85.59082;935.7506;;;;
2019/10/05 14:19:47;;;;;;;1.2;0.9;;;;;;;11.87;84.9707;935.8008;;;;
2019/10/05 14:22:15;;;;;;;1.6;1;;;;;;;11.8;85.32129;935.845;;;;
2019/10/05 14:24:41;;;;;;;2;1.1;;;;;;;11.62;86.24707;935.8159;;;;
2019/10/05 14:27:06;;;;;;;2.2;1;;;;;;;11.36;86.9502;935.8275;;;;
2019/10/05 14:29:37;;;;;;;1.1;0.9;;;;;;;11.61;86.19922;935.8326;;;;
2019/10/05 14:32:05;;;;;;;1.5;1;;;;;;;11.63;85.72266;935.863;;;;
2019/10/05 14:34:32;;;;;;;2.3;0.7;;;;;;;11.56;85.82422;935.92;;;;
2019/10/05 14:36:56;;;;;;;1.1;1;;;;;;;11.63;85.40137;935.8239;;;;
2019/10/05 14:39:28;;;;;;;1.1;0.7;;;;;;;11.63;85.67676;935.9092;;;;
2019/10/05 14:41:55;;;;;;;1.3;1;;;;;;;11.49;86.16406;935.9103;;;;
2019/10/05 14:44:29;;;;;;;1.1;0.9;;;;;;;11.63;85.75684;936.0184;;;;
2019/10/05 14:46:54;;;;;;;2.5;1.1;;;;;;;11.58;86.125;936.0659;;;;
2019/10/05 14:49:17;;;;;;;2.9;1.3;;;;;;;11.52;86.14746;936.093;;;;
2019/10/05 14:51:52;;;;;;;1.6;1.2;;;;;;;11.63;86.22559;936.0798;;;;
2019/10/05 14:54:19;;;;;;;1.6;1.3;;;;;;;11.72;85.3623;936.1414;;;;
2019/10/05 14:56:50;;;;;;;2.2;1.3;;;;;;;11.7;85.19824;936.1319;;;;
2019/10/05 14:59:17;;;;;;;2.7;2.2;;;;;;;11.63;85.81348;936.209;;;;
2019/10/05 15:01:46;;;;;;;2.6;1.7;;;;;;;11.41;86.4707;936.2513;;;;
2019/10/05 15:04:16;;;;;;;2.4;1.8;;;;;;;11.63;86.27148;936.3198;;;;
2019/10/05 15:06:41;;;;;;;2.1;1.6;;;;;;;11.45;86.09863;936.3407;;;;
2019/10/05 15:09:09;;;;;;;2.1;1.9;;;;;;;11.38;86.33789;936.4598;;;;
2019/10/05 15:11:34;;;;;;;2.4;1.4;;;;;;;11.42;86.26465;936.4116;;;;
2019/10/05 15:14:04;;;;;;;2.8;1.7;;;;;;;11.38;86.54297;936.467;;;;
2019/10/05 15:16:37;;;;;;;2.6;1.8;;;;;;;11.47;86.40137;936.5011;;;;
2019/10/05 15:19:03;;;;;;;3.2;2.5;;;;;;;11.51;85.95117;936.5418;;;;
2019/10/05 15:21:31;;;;;;;3.4;2.9;;;;;;;11.44;85.06836;936.6069;;;;
2019/10/05 15:23:57;;;;;;;3.3;2.8;;;;;;;11.35;86.04395;936.6047;;;;
2019/10/05 15:26:23;;;;;;;3.7;2.8;;;;;;;11.27;85.80078;936.6205;;;;
2019/10/05 15:28:56;;;;;;;3.2;2.9;;;;;;;11.33;86.25781;936.6238;;;;
2019/10/05 15:31:23;;;;;;;3.6;3.2;;;;;;;11.32;86.17578;936.6669;;;;
2019/10/05 15:33:48;;;;;;;3.9;3.1;;;;;;;11.38;85.41113;936.7149;;;;
2019/10/05 15:36:15;;;;;;;3.9;3;;;;;;;11.43;85.23633;936.6731;;;;
2019/10/05 15:38:44;;;;;;;4.2;2.9;;;;;;;11.43;85.01953;936.7704;;;;
2019/10/05 15:41:12;;;;;;;4.2;2.6;;;;;;;11.37;84.68848;936.7899;;;;
2019/10/05 15:43:41;;;;;;;4.4;2.9;;;;;;;11.44;84.87207;936.7481;;;;
2019/10/05 15:46:06;;;;;;;3.1;2.8;;;;;;;11.28;85.62012;936.7735;;;;
2019/10/05 15:48:34;;;;;;;3.5;3.1;;;;;;;11.26;85.2373;936.8116;;;;
2019/10/05 15:50:58;;;;;;;3.6;3;;;;;;;11.3;84.77734;936.9274;;;;
2019/10/05 15:53:25;;;;;;;3.9;2.9;;;;;;;11.21;85.02246;936.9124;;;;
2019/10/05 15:55:56;;;;;;;3.3;3;;;;;;;11.25;84.89258;937.014;;;;
2019/10/05 15:58:30;;;;;;;3.3;3;;;;;;;11.35;84.31738;937.0672;;;;
2019/10/05 16:00:52;;;;;;;3.6;3.3;;;;;;;11.3;84.15918;937.1139;;;;
2019/10/05 16:03:22;;;;;;;3.6;3.3;;;;;;;11.23;84.6582;937.1239;;;;
2019/10/05 16:05:46;;;;;;;3.7;3.4;;;;;;;11.26;84.63086;937.1305;;;;
2019/10/05 16:08:13;;;;;;;5.1;3.5;;;;;;;11.28;84.37305;937.0988;;;;
2019/10/05 16:10:49;;;;;;;4.2;3.4;;;;;;;11.25;84.18555;937.2142;;;;
2019/10/05 16:15:52;;;;;;;3.7;3.2;;;;;;;11.29;84.04297;937.318;;;;
2019/10/05 16:18:24;;;;;;;3.8;3.1;;;;;;;11.22;84.6123;937.3455;;;;
2019/10/05 16:20:53;;;;;;;4.4;3.1;;;;;;;11.16;84.26855;937.3752;;;;
2019/10/05 16:23:32;;;;;;;3.5;3;;;;;;;11.07;84.59375;937.4017;;;;
2019/10/05 16:26:09;;;;;;;3.8;3;;;;;;;;;;;;;
2019/10/05 16:28:33;;;;;;;3.6;2.7;;;;;;;;;;;;;
2019/10/05 16:31:03;;;;;;;3.6;3;;;;;;;;;;;;;
2019/10/05 16:33:31;;;;;;;3.9;3.2;;;;;;;;;;;;;
2019/10/05 16:36:16;;;;;;;3;2.7;;;;;;;;;;;;;
2019/10/05 16:38:43;;;;;;;4.3;3.1;;;;;;;;;;;;;
2019/10/05 16:40:59;;;;;;;3.9;3.3;;;;;;;;;;;;;
2019/10/05 16:43:24;;;;;;;3.7;3.2;;;;;;;;;;;;;
2019/10/05 16:45:49;;;;;;;4.2;3.1;;;;;;;;;;;;;
2019/10/05 16:48:20;;;;;;;5.4;3.7;;;;;;;;;;;;;
2019/10/05 16:50:40;;;;;;;3.9;3.1;;;;;;;;;;;;;
2019/10/05 16:53:05;;;;;;;6.4;3.5;;;;;;;;;;;;;
2019/10/05 16:55:36;;;;;;;4.2;3.6;;;;;;;;;;;;;
2019/10/05 16:57:58;;;;;;;5.1;3.7;;;;;;;;;;;;;
2019/10/05 17:00:32;;;;;;;4.3;3.5;;;;;;;;;;;;;
2019/10/05 17:03:00;;;;;;;4.4;3.3;;;;;;;;;;;;;
2019/10/05 17:05:29;;;;;;;4.9;3.7;;;;;;;;;;;;;
2019/10/05 17:08:09;;;;;;;5.1;4.2;;;;;;;;;;;;;
2019/10/05 17:10:33;;;;;;;5.2;4.7;;;;;;;;;;;;;
2019/10/05 17:12:52;;;;;;;5.3;4.8;;;;;;;;;;;;;
2019/10/05 17:15:23;;;;;;;5.6;4.4;;;;;;;;;;;;;
2019/10/05 17:18:20;;;;;;;11.7;8.8;;;;;;;;;;;;;
2019/10/05 17:20:30;;;;;;;5.9;4.5;;;;;;;;;;;;;
2019/10/05 17:22:56;;;;;;;4.2;3.8;;;;;;;;;;;;;
2019/10/05 17:25:27;;;;;;;5.3;3.9;;;;;;;;;;;;;
2019/10/05 17:27:52;;;;;;;4.7;3.5;;;;;;;;;;;;;
2019/10/05 17:30:21;;;;;;;5.3;3.4;;;;;;;;;;;;;
2019/10/05 17:32:44;;;;;;;5.3;4;;;;;;;;;;;;;
2019/10/05 17:35:07;;;;;;;5.3;3.7;;;;;;;;;;;;;
2019/10/05 17:37:38;;;;;;;4.1;3.7;;;;;;;;;;;;;
2019/10/05 17:40:02;;;;;;;10.1;4.7;;;;;;;;;;;;;
2019/10/05 17:42:28;;;;;;;6.3;4.8;;;;;;;;;;;;;
2019/10/05 17:44:53;;;;;;;5.8;5;;;;;;;;;;;;;
2019/10/05 17:47:33;;;;;;;7;5.3;;;;;;;;;;;;;
2019/10/05 17:49:43;;;;;;;7.7;6.1;;;;;;;;;;;;;
2019/10/05 17:52:15;;;;;;;6.5;5.5;;;;;;;;;;;;;
2019/10/05 17:54:36;;;;;;;5.3;4.8;;;;;;;;;;;;;
2019/10/05 17:57:00;;;;;;;6.9;5.1;;;;;;;;;;;;;
2019/10/05 17:59:24;;;;;;;7.3;5.9;;;;;;;;;;;;;
2019/10/05 18:01:48;;;;;;;6.7;6;;;;;;;;;;;;;
2019/10/05 18:04:20;;;;;;;8.3;6.1;;;;;;;;;;;;;
2019/10/05 18:06:45;;;;;;;5.8;5.2;;;;;;;;;;;;;
2019/10/05 18:09:17;;;;;;;4.7;4.1;;;;;;;;;;;;;
2019/10/05 18:11:41;;;;;;;5.2;4.5;;;;;;;;;;;;;
2019/10/05 18:14:12;;;;;;;5;4.5;;;;;;;;;;;;;
2019/10/05 18:16:35;;;;;;;5.6;5;;;;;;;;;;;;;
2019/10/05 18:19:22;;;;;;;8.5;6.6;;;;;;;;;;;;;
2019/10/05 18:21:45;;;;;;;9;7.3;;;;;;;;;;;;;
2019/10/05 18:24:12;;;;;;;9.6;7.5;;;;;;;;;;;;;
2019/10/05 18:26:46;;;;;;;8.9;7.5;;;;;;;;;;;;;
2019/10/05 18:29:02;;;;;;;7.1;6.4;;;;;;;;;;;;;
2019/10/05 18:31:28;;;;;;;6.8;5.1;;;;;;;;;;;;;
2019/10/05 18:33:56;;;;;;;6.4;5.1;;;;;;;;;;;;;
2019/10/05 18:36:33;;;;;;;6.4;4.8;;;;;;;;;;;;;
2019/10/05 18:38:52;;;;;;;5.9;5.2;;;;;;;;;;;;;
2019/10/05 18:41:16;;;;;;;5.4;4.8;;;;;;;;;;;;;
2019/10/05 18:43:41;;;;;;;4.7;4.1;;;;;;;;;;;;;
2019/10/05 18:46:08;;;;;;;4.6;4;;;;;;;;;;;;;
2019/10/05 18:48:34;;;;;;;4;3.6;;;;;;;;;;;;;
2019/10/05 18:50:58;;;;;;;5.4;3.8;;;;;;;;;;;;;
2019/10/05 18:53:23;;;;;;;4.8;3.9;;;;;;;;;;;;;
2019/10/05 18:55:51;;;;;;;4.4;4;;;;;;;;;;;;;